Time;durP1;ratioP1;P1;durP2;ratioP2;P2;SDS_P1;SDS_P2;PMS_P1;PMS_P2;Temp;Humidity;BMP_temperature;BMP_pressure;BME280_temperature;BME280_humidity;BME280_pressure;Samples;Min_cycle;Max_cycle;Signal;HPM_P1;HPM_P2
2021/01/25 00:02:14;;;;;;;8.10;2.05;;;;;;;;;;5036896;28;19935;-86
2021/01/25 00:04:42;;;;;;;13.00;2.95;;;;;;;;;;5020227;28;20067;-87
2021/01/25 00:07:10;;;;;;;10.52;2.28;;;;;;;;;;5035319;28;20546;-85
2021/01/25 00:09:38;;;;;;;9.88;1.98;;;;;;;;;;4967276;28;20071;-85
2021/01/25 00:12:06;;;;;;;11.45;3.38;;;;;;;;;;5010509;28;20075;-85
2021/01/25 00:14:34;;;;;;;10.30;2.28;;;;;;;;;;4986064;28;20347;-86
2021/01/25 00:17:02;;;;;;;11.15;2.33;;;;;;;;;;5006332;28;20058;-86
2021/01/25 00:19:30;;;;;;;9.25;2.30;;;;;;;;;;5022386;28;20029;-86
2021/01/25 00:21:58;;;;;;;10.57;2.65;;;;;;;;;;5038945;28;20045;-85
2021/01/25 00:24:24;;;;;;;10.45;2.35;;;;;;;;;;5008438;28;20863;-84
2021/01/25 00:26:52;;;;;;;9.23;2.13;;;;;;;;;;5015161;28;20036;-85
2021/01/25 00:29:18;;;;;;;9.25;2.42;;;;;;;;;;5006253;28;20159;-87
2021/01/25 00:31:44;;;;;;;;;;;;;;;;;;5012818;28;20072;-85
2021/01/25 00:34:14;;;;;;;10.93;2.42;;;;;;;;;;5045831;28;19948;-86
2021/01/25 00:36:44;;;;;;;13.48;2.20;;;;;;;;;;5018518;28;20052;-85
2021/01/25 00:39:13;;;;;;;12.57;3.08;;;;;;;;;;5025514;28;20037;-84
2021/01/25 00:41:42;;;;;;;12.95;2.50;;;;;;;;;;5023315;28;20024;-86
2021/01/25 00:44:12;;;;;;;13.90;4.00;;;;;;;;;;5018957;28;20063;-86
2021/01/25 00:46:41;;;;;;;16.65;6.93;;;;;;;;;;5037831;28;20090;-86
2021/01/25 00:49:09;;;;;;;28.13;14.10;;;;;;;;;;5049069;28;20037;-87
2021/01/25 00:51:35;;;;;;;22.25;9.55;;;;;;;;;;4994678;28;20049;-85
2021/01/25 00:54:05;;;;;;;13.75;5.50;;;;;;;;;;5048590;28;20037;-85
2021/01/25 00:56:31;;;;;;;16.52;6.85;;;;;;;;;;4981195;28;20041;-85
2021/01/25 00:58:59;;;;;;;14.70;8.00;;;;;;;;;;5013465;28;21474;-85
2021/01/25 01:01:26;;;;;;;10.85;3.60;;;;;;;;;;5029047;28;20029;-85
2021/01/25 01:03:54;;;;;;;12.52;3.10;;;;;;;;;;5004818;28;20048;-85
2021/01/25 01:06:21;;;;;;;13.35;4.32;;;;;;;;;;5034579;28;20037;-85
2021/01/25 01:08:49;;;;;;;11.93;2.83;;;;;;;;;;5020069;28;20048;-84
2021/01/25 01:11:16;;;;;;;9.75;2.50;;;;;;;;;;5006366;28;20061;-86
2021/01/25 01:13:43;;;;;;;12.80;3.38;;;;;;;;;;5014163;28;20578;-85
2021/01/25 01:16:09;;;;;;;;;;;;;;;;;;5025718;28;20086;-84
2021/01/25 01:18:36;;;;;;;13.23;2.42;;;;;;;;;;5010692;28;19920;-85
2021/01/25 01:21:05;;;;;;;13.57;2.92;;;;;;;;;;5030275;28;20044;-86
2021/01/25 01:23:33;;;;;;;11.38;2.70;;;;;;;;;;5008697;28;20030;-85
2021/01/25 01:26:04;;;;;;;12.85;2.90;;;;;;;;;;5020217;28;20040;-85
2021/01/25 01:28:36;;;;;;;11.75;2.60;;;;;;;;;;5028252;28;20036;-86
2021/01/25 01:31:02;;;;;;;12.07;3.08;;;;;;;;;;4989640;28;20040;-85
2021/01/25 01:33:30;;;;;;;10.55;3.00;;;;;;;;;;5013720;28;20205;-85
2021/01/25 01:36:00;;;;;;;13.85;2.65;;;;;;;;;;5039004;28;20142;-86
2021/01/25 01:38:27;;;;;;;11.52;2.60;;;;;;;;;;5002733;28;20809;-85
2021/01/25 01:40:56;;;;;;;14.25;3.78;;;;;;;;;;4991774;28;20037;-85
2021/01/25 01:43:24;;;;;;;15.98;2.75;;;;;;;;;;4994884;28;20068;-85
2021/01/25 01:45:53;;;;;;;12.40;3.10;;;;;;;;;;4982246;28;20129;-86
2021/01/25 01:48:22;;;;;;;12.77;2.67;;;;;;;;;;4980357;28;20105;-85
2021/01/25 01:50:49;;;;;;;15.65;2.88;;;;;;;;;;4982767;28;20064;-85
2021/01/25 01:53:17;;;;;;;13.02;3.03;;;;;;;;;;4976277;28;20076;-85
2021/01/25 01:55:47;;;;;;;12.60;3.03;;;;;;;;;;5009668;28;20063;-85
2021/01/25 01:58:14;;;;;;;15.15;3.08;;;;;;;;;;5029305;28;20030;-84
2021/01/25 02:00:41;;;;;;;13.48;3.20;;;;;;;;;;5003707;28;21168;-85
2021/01/25 02:03:07;;;;;;;11.82;2.63;;;;;;;;;;5004157;28;20041;-85
2021/01/25 02:05:35;;;;;;;13.48;3.45;;;;;;;;;;5030967;28;20270;-84
2021/01/25 02:08:10;;;;;;;13.43;2.67;;;;;;;;;;5003695;28;20042;-85
2021/01/25 02:10:40;;;;;;;14.18;3.25;;;;;;;;;;5018496;28;20048;-86
2021/01/25 02:13:06;;;;;;;12.32;2.83;;;;;;;;;;5028431;28;20144;-85
2021/01/25 02:15:35;;;;;;;15.13;3.42;;;;;;;;;;5029481;28;20039;-84
2021/01/25 02:18:06;;;;;;;14.93;2.50;;;;;;;;;;5030551;28;20055;-84
2021/01/25 02:20:37;;;;;;;12.80;2.72;;;;;;;;;;5007949;28;20040;-86
2021/01/25 02:23:27;;;;;;;10.30;2.40;;;;;;;;;;5012257;28;20269;-85
2021/01/25 02:26:12;;;;;;;12.27;2.10;;;;;;;;;;5013071;28;20036;-85
2021/01/25 02:28:46;;;;;;;14.68;2.20;;;;;;;;;;5027862;28;20139;-86
2021/01/25 02:31:16;;;;;;;10.63;2.15;;;;;;;;;;5044067;28;20088;-85
2021/01/25 02:33:46;;;;;;;9.60;1.95;;;;;;;;;;5028394;28;20088;-85
2021/01/25 02:36:16;;;;;;;10.30;2.38;;;;;;;;;;5031941;28;20052;-86
2021/01/25 02:38:44;;;;;;;9.07;1.83;;;;;;;;;;5016947;28;20037;-86
2021/01/25 02:41:15;;;;;;;10.73;2.35;;;;;;;;;;5002024;28;20029;-86
2021/01/25 02:43:54;;;;;;;11.10;2.08;;;;;;;;;;5004199;28;20033;-85
2021/01/25 02:46:22;;;;;;;9.77;2.30;;;;;;;;;;5016520;28;20404;-86
2021/01/25 02:48:48;;;;;;;11.52;2.15;;;;;;;;;;5024178;28;20758;-86
2021/01/25 02:51:17;;;;;;;14.15;2.45;;;;;;;;;;5007185;28;20076;-86
2021/01/25 02:53:45;;;;;;;12.75;2.33;;;;;;;;;;4985692;28;20030;-85
2021/01/25 02:56:12;;;;;;;12.85;2.30;;;;;;;;;;5036743;28;20036;-85
2021/01/25 02:58:42;;;;;;;10.45;2.55;;;;;;;;;;5018645;28;20044;-85
2021/01/25 03:01:09;;;;;;;70.35;38.55;;;;;;;;;;5043461;28;20032;-85
2021/01/25 03:03:36;;;;;;;37.25;20.13;;;;;;;;;;5035334;28;20169;-85
2021/01/25 03:06:04;;;;;;;30.23;15.65;;;;;;;;;;4995633;28;20044;-85
2021/01/25 03:08:33;;;;;;;24.17;13.60;;;;;;;;;;4996798;28;20045;-85
2021/01/25 03:11:05;;;;;;;12.35;4.53;;;;;;;;;;5028824;28;20050;-85
2021/01/25 03:13:33;;;;;;;11.52;3.42;;;;;;;;;;5016998;28;20048;-85
2021/01/25 03:16:13;;;;;;;12.23;2.75;;;;;;;;;;5021966;28;20127;-84
2021/01/25 03:18:39;;;;;;;12.57;2.63;;;;;;;;;;5045108;28;20099;-85
2021/01/25 03:21:09;;;;;;;9.45;1.88;;;;;;;;;;5020802;28;20107;-85
2021/01/25 03:23:38;;;;;;;10.70;2.08;;;;;;;;;;5047517;28;20032;-85
2021/01/25 03:26:06;;;;;;;8.18;1.42;;;;;;;;;;5025740;28;20037;-86
2021/01/25 03:28:39;;;;;;;9.07;1.85;;;;;;;;;;5040326;28;20244;-86
2021/01/25 03:31:12;;;;;;;9.10;1.77;;;;;;;;;;5034080;28;20058;-86
2021/01/25 03:33:39;;;;;;;8.63;1.60;;;;;;;;;;5003447;28;20069;-85
2021/01/25 03:36:08;;;;;;;9.25;1.75;;;;;;;;;;4952750;28;20725;-86
2021/01/25 03:38:34;;;;;;;7.03;1.38;;;;;;;;;;4986966;28;20034;-85
2021/01/25 03:41:05;;;;;;;9.73;1.73;;;;;;;;;;4973779;28;20693;-86
2021/01/25 03:43:31;;;;;;;9.93;1.55;;;;;;;;;;4992126;28;20546;-85
2021/01/25 03:46:08;;;;;;;7.32;1.40;;;;;;;;;;4959216;28;20990;-86
2021/01/25 03:48:34;;;;;;;8.40;1.80;;;;;;;;;;4978593;28;20204;-86
2021/01/25 03:51:03;;;;;;;9.35;1.63;;;;;;;;;;5010534;28;20026;-86
2021/01/25 03:53:30;;;;;;;10.57;1.60;;;;;;;;;;4989561;28;20165;-86
2021/01/25 03:56:03;;;;;;;7.90;1.50;;;;;;;;;;4977020;28;21024;-85
2021/01/25 03:58:30;;;;;;;9.40;1.35;;;;;;;;;;4985290;28;20176;-86
2021/01/25 04:00:57;;;;;;;10.00;1.73;;;;;;;;;;5001893;28;20033;-86
2021/01/25 04:03:24;;;;;;;6.88;1.23;;;;;;;;;;4943000;28;20038;-86
2021/01/25 04:05:52;;;;;;;8.80;1.50;;;;;;;;;;4989150;28;20503;-86
2021/01/25 04:08:23;;;;;;;10.13;1.65;;;;;;;;;;4984399;28;20032;-85
2021/01/25 04:10:49;;;;;;;7.43;1.58;;;;;;;;;;4981568;28;20144;-86
2021/01/25 04:13:15;;;;;;;7.88;1.55;;;;;;;;;;4995122;28;20033;-86
2021/01/25 04:15:42;;;;;;;;;;;;;;;;;;4974250;28;20128;-87
2021/01/25 04:18:10;;;;;;;8.23;1.67;;;;;;;;;;4982888;28;19923;-86
2021/01/25 04:20:37;;;;;;;8.70;1.48;;;;;;;;;;4980757;28;20121;-86
2021/01/25 04:23:04;;;;;;;6.05;1.08;;;;;;;;;;5000343;28;20037;-86
2021/01/25 04:25:34;;;;;;;11.23;1.50;;;;;;;;;;5034712;28;20523;-87
2021/01/25 04:28:01;;;;;;;10.05;1.80;;;;;;;;;;4994946;28;20040;-86
2021/01/25 04:30:28;;;;;;;9.02;1.40;;;;;;;;;;5001965;28;20041;-86
2021/01/25 04:33:00;;;;;;;7.82;1.50;;;;;;;;;;5028700;28;20055;-86
2021/01/25 04:35:27;;;;;;;11.48;1.77;;;;;;;;;;5023643;28;20064;-87
2021/01/25 04:37:53;;;;;;;8.98;1.50;;;;;;;;;;5009775;28;20048;-87
2021/01/25 04:40:19;;;;;;;;;;;;;;;;;;5024291;28;20032;-86
2021/01/25 04:42:48;;;;;;;8.95;1.48;;;;;;;;;;5021997;28;19921;-86
2021/01/25 04:45:34;;;;;;;7.90;1.45;;;;;;;;;;5035276;28;20040;-86
2021/01/25 04:48:02;;;;;;;7.97;1.35;;;;;;;;;;4991180;28;20048;-86
2021/01/25 04:50:29;;;;;;;10.35;1.55;;;;;;;;;;5024188;28;20040;-85
2021/01/25 04:52:58;;;;;;;8.80;1.67;;;;;;;;;;5015289;28;20063;-86
2021/01/25 04:55:25;;;;;;;9.77;1.63;;;;;;;;;;5007751;28;20561;-87
2021/01/25 04:57:56;;;;;;;10.40;1.63;;;;;;;;;;5029221;28;20140;-86
2021/01/25 05:00:23;;;;;;;9.70;2.30;;;;;;;;;;5024559;28;20141;-86
2021/01/25 05:02:49;;;;;;;13.73;4.22;;;;;;;;;;5042681;28;20076;-87
2021/01/25 05:05:16;;;;;;;21.30;10.32;;;;;;;;;;4997118;28;20056;-87
2021/01/25 05:07:43;;;;;;;;;;;;;;;;;;5006604;28;20037;-87
2021/01/25 05:10:11;;;;;;;9.70;1.92;;;;;;;;;;5029120;28;20062;-87
2021/01/25 05:12:44;;;;;;;9.80;2.38;;;;;;;;;;5006959;28;20121;-89
2021/01/25 05:15:12;;;;;;;10.07;2.30;;;;;;;;;;5012139;28;20071;-91
2021/01/25 05:17:43;;;;;;;9.68;1.77;;;;;;;;;;5012420;28;20098;-89
2021/01/25 05:20:09;;;;;;;11.48;1.83;;;;;;;;;;5013796;28;20040;-87
2021/01/25 05:22:38;;;;;;;10.77;1.80;;;;;;;;;;5029198;28;20036;-89
2021/01/25 05:25:08;;;;;;;9.82;1.67;;;;;;;;;;5023886;28;20500;-88
2021/01/25 05:27:36;;;;;;;10.88;1.88;;;;;;;;;;5006546;28;20041;-88
2021/01/25 05:30:12;;;;;;;9.95;1.88;;;;;;;;;;5020457;28;20803;-89
2021/01/25 05:32:50;;;;;;;6.82;1.67;;;;;;;;;;5033675;28;20044;-89
2021/01/25 05:35:21;;;;;;;11.02;2.17;;;;;;;;;;5036636;28;20055;-89
2021/01/25 05:37:59;;;;;;;12.60;2.03;;;;;;;;;;5026064;28;20048;-88
2021/01/25 05:40:37;;;;;;;12.93;2.00;;;;;;;;;;5040519;28;20025;-89
2021/01/25 05:43:13;;;;;;;8.05;1.70;;;;;;;;;;4976053;28;20148;-87
2021/01/25 05:45:42;;;;;;;10.83;2.00;;;;;;;;;;5020023;28;20033;-87
2021/01/25 05:48:14;;;;;;;11.60;1.88;;;;;;;;;;5014657;28;20282;-86
2021/01/25 05:50:42;;;;;;;13.75;1.85;;;;;;;;;;5007753;28;20036;-85
2021/01/25 05:53:13;;;;;;;12.63;2.20;;;;;;;;;;5007931;28;20041;-87
2021/01/25 05:55:43;;;;;;;12.93;2.03;;;;;;;;;;5007696;28;20025;-85
2021/01/25 05:58:12;;;;;;;10.75;2.20;;;;;;;;;;5008869;28;20044;-86
2021/01/25 06:00:43;;;;;;;13.77;3.40;;;;;;;;;;5006581;28;20182;-86
2021/01/25 06:03:11;;;;;;;16.83;3.40;;;;;;;;;;4992165;28;20045;-87
2021/01/25 06:05:40;;;;;;;14.00;2.97;;;;;;;;;;5021451;28;20814;-87
2021/01/25 06:08:34;;;;;;;13.40;3.00;;;;;;;;;;5023190;28;20029;-86
2021/01/25 06:11:36;;;;;;;11.85;2.60;;;;;;;;;;4912764;28;20051;-87
2021/01/25 06:14:16;;;;;;;11.20;2.30;;;;;;;;;;4829889;29;20121;-86
2021/01/25 06:16:45;;;;;;;10.30;2.33;;;;;;;;;;4866842;29;20547;-87
2021/01/25 06:19:11;;;;;;;11.13;2.47;;;;;;;;;;4884171;29;20114;-84
2021/01/25 06:21:40;;;;;;;11.02;2.58;;;;;;;;;;4859999;29;20080;-85
2021/01/25 06:24:13;;;;;;;9.73;2.03;;;;;;;;;;4852091;29;20075;-86
2021/01/25 06:26:39;;;;;;;10.07;2.00;;;;;;;;;;4875460;29;20066;-87
2021/01/25 06:29:07;;;;;;;11.60;2.25;;;;;;;;;;4888128;29;20039;-87
2021/01/25 06:31:39;;;;;;;11.00;1.98;;;;;;;;;;4889598;29;20038;-87
2021/01/25 06:34:06;;;;;;;9.68;2.45;;;;;;;;;;4857075;29;20036;-87
2021/01/25 06:36:35;;;;;;;13.05;2.75;;;;;;;;;;4850996;29;20046;-87
2021/01/25 06:39:11;;;;;;;12.45;2.25;;;;;;;;;;4892341;29;20110;-87
2021/01/25 06:41:41;;;;;;;12.85;2.10;;;;;;;;;;4849785;29;20194;-86
2021/01/25 06:44:09;;;;;;;13.00;2.33;;;;;;;;;;4869225;29;20081;-86
2021/01/25 06:46:39;;;;;;;11.85;2.78;;;;;;;;;;4887570;29;20095;-87
2021/01/25 06:49:09;;;;;;;9.43;2.15;;;;;;;;;;4939690;28;20068;-87
2021/01/25 06:51:44;;;;;;;12.82;2.70;;;;;;;;;;5038760;28;20044;-87
2021/01/25 06:54:11;;;;;;;11.30;2.33;;;;;;;;;;5017086;28;20469;-86
2021/01/25 06:56:58;;;;;;;13.63;2.92;;;;;;;;;;5019519;28;20029;-86
2021/01/25 06:59:28;;;;;;;14.05;2.78;;;;;;;;;;5010896;28;20207;-87
2021/01/25 07:01:58;;;;;;;10.10;2.60;;;;;;;;;;5027868;28;20051;-88
2021/01/25 07:04:27;;;;;;;14.05;3.38;;;;;;;;;;5042222;28;20042;-86
2021/01/25 07:06:54;;;;;;;14.15;3.63;;;;;;;;;;5047781;28;20071;-85
2021/01/25 07:09:31;;;;;;;12.38;2.83;;;;;;;;;;5026462;28;20045;-87
2021/01/25 07:12:00;;;;;;;11.02;2.50;;;;;;;;;;5016986;28;20072;-87
2021/01/25 07:14:29;;;;;;;12.15;2.97;;;;;;;;;;5011473;28;20430;-85
2021/01/25 07:16:57;;;;;;;14.55;3.30;;;;;;;;;;5049466;28;20119;-85
2021/01/25 07:19:25;;;;;;;11.65;2.30;;;;;;;;;;5043067;28;20035;-86
2021/01/25 07:21:52;;;;;;;14.63;2.78;;;;;;;;;;5028917;28;20037;-87
2021/01/25 07:24:21;;;;;;;12.90;2.50;;;;;;;;;;5039170;28;20538;-86
2021/01/25 07:26:51;;;;;;;14.13;2.72;;;;;;;;;;5005630;28;20127;-86
2021/01/25 07:29:19;;;;;;;12.13;2.40;;;;;;;;;;5025887;28;20056;-86
2021/01/25 07:31:47;;;;;;;11.57;2.10;;;;;;;;;;5030348;28;20040;-85
2021/01/25 07:34:16;;;;;;;12.75;2.60;;;;;;;;;;5029469;28;20033;-86
2021/01/25 07:36:42;;;;;;;12.40;2.70;;;;;;;;;;5005886;28;20047;-85
2021/01/25 07:39:11;;;;;;;14.32;2.97;;;;;;;;;;5008568;28;20063;-87
2021/01/25 07:41:39;;;;;;;12.98;2.80;;;;;;;;;;5029870;28;20051;-87
2021/01/25 07:44:06;;;;;;;15.10;2.92;;;;;;;;;;5046770;28;20044;-87
2021/01/25 07:46:32;;;;;;;14.50;3.20;;;;;;;;;;5031981;28;20021;-86
2021/01/25 07:49:01;;;;;;;15.93;3.60;;;;;;;;;;4986975;28;20051;-86
2021/01/25 07:51:32;;;;;;;14.10;2.85;;;;;;;;;;4992444;28;20033;-86
2021/01/25 07:53:59;;;;;;;13.88;3.22;;;;;;;;;;5007859;28;20104;-86
2021/01/25 07:56:26;;;;;;;13.13;2.90;;;;;;;;;;5006327;28;20036;-86
2021/01/25 07:59:07;;;;;;;24.33;4.10;;;;;;;;;;5012629;28;20021;-86
2021/01/25 08:01:38;;;;;;;15.07;3.22;;;;;;;;;;5031719;28;20484;-85
2021/01/25 08:04:08;;;;;;;14.07;3.03;;;;;;;;;;5024039;28;20048;-86
2021/01/25 08:06:35;;;;;;;11.70;2.58;;;;;;;;;;5032163;28;20401;-86
2021/01/25 08:09:11;;;;;;;13.57;2.35;;;;;;;;;;5013873;28;20409;-86
2021/01/25 08:11:44;;;;;;;14.50;2.40;;;;;;;;;;5023845;28;20721;-86
2021/01/25 08:14:25;;;;;;;16.42;3.13;;;;;;;;;;5021652;28;20518;-86
2021/01/25 08:17:04;;;;;;;15.55;3.28;;;;;;;;;;5022527;28;20039;-86
2021/01/25 08:19:38;;;;;;;16.08;3.03;;;;;;;;;;5020563;28;20025;-86
2021/01/25 08:22:09;;;;;;;16.88;2.97;;;;;;;;;;4944497;28;20040;-85
2021/01/25 08:24:37;;;;;;;17.75;3.38;;;;;;;;;;5008770;28;20250;-85
2021/01/25 08:27:05;;;;;;;14.45;2.60;;;;;;;;;;4994037;28;20051;-86
2021/01/25 08:29:32;;;;;;;17.73;3.17;;;;;;;;;;5026064;28;20075;-85
2021/01/25 08:31:59;;;;;;;20.13;3.17;;;;;;;;;;5033598;28;20046;-86
2021/01/25 08:34:32;;;;;;;16.55;2.88;;;;;;;;;;5039745;28;20698;-88
2021/01/25 08:37:08;;;;;;;15.38;2.75;;;;;;;;;;5006959;28;20068;-86
2021/01/25 08:39:47;;;;;;;14.27;2.70;;;;;;;;;;5013292;28;20036;-86
2021/01/25 08:42:18;;;;;;;14.05;2.83;;;;;;;;;;4951534;28;20410;-86
2021/01/25 08:44:49;;;;;;;12.13;2.67;;;;;;;;;;4995738;28;20037;-85
2021/01/25 08:47:20;;;;;;;16.63;3.20;;;;;;;;;;5011355;28;20515;-86
2021/01/25 08:49:52;;;;;;;14.40;3.15;;;;;;;;;;5001787;28;20112;-87
2021/01/25 08:52:35;;;;;;;16.58;2.90;;;;;;;;;;5027812;28;20037;-85
2021/01/25 08:55:22;;;;;;;13.38;3.28;;;;;;;;;;5026606;28;20033;-86
2021/01/25 08:57:55;;;;;;;13.80;2.67;;;;;;;;;;4986358;28;20048;-86
2021/01/25 09:00:43;;;;;;;15.30;3.03;;;;;;;;;;4972963;28;20037;-86
2021/01/25 09:03:13;;;;;;;14.88;3.58;;;;;;;;;;4931504;28;20038;-88
2021/01/25 09:05:40;;;;;;;16.10;3.50;;;;;;;;;;4955545;28;20042;-87
2021/01/25 09:08:08;;;;;;;16.75;3.35;;;;;;;;;;4983241;28;20153;-87
2021/01/25 09:10:34;;;;;;;17.13;3.78;;;;;;;;;;4980348;28;20130;-88
2021/01/25 09:13:02;;;;;;;;;;;;;;;;;;4992455;28;20989;-87
2021/01/25 09:15:30;;;;;;;18.10;3.47;;;;;;;;;;4936126;28;20000;-86
2021/01/25 09:17:59;;;;;;;15.10;3.03;;;;;;;;;;4967301;28;20049;-86
2021/01/25 09:20:28;;;;;;;14.68;3.40;;;;;;;;;;4971112;28;20082;-87
2021/01/25 09:22:56;;;;;;;13.75;3.20;;;;;;;;;;4983893;28;20048;-86
2021/01/25 09:25:24;;;;;;;19.13;3.58;;;;;;;;;;4987298;28;20065;-87
2021/01/25 09:27:57;;;;;;;18.83;3.90;;;;;;;;;;4997932;28;20403;-89
2021/01/25 09:30:29;;;;;;;15.20;3.47;;;;;;;;;;4958573;28;20105;-88
2021/01/25 09:32:59;;;;;;;19.33;4.03;;;;;;;;;;4974276;28;20042;-88
2021/01/25 09:35:27;;;;;;;18.15;3.75;;;;;;;;;;5028912;28;20391;-87
2021/01/25 09:37:54;;;;;;;14.75;3.45;;;;;;;;;;5010628;28;20551;-87
2021/01/25 09:40:21;;;;;;;13.50;3.63;;;;;;;;;;5009147;28;20037;-87
2021/01/25 09:42:59;;;;;;;14.55;3.78;;;;;;;;;;5030337;28;20033;-87
2021/01/25 09:45:26;;;;;;;;;;;;;;;;;;5021943;28;20741;-88
2021/01/25 09:47:52;;;;;;;;;;;;;;;;;;5017707;28;19971;-87
2021/01/25 09:50:19;;;;;;;17.20;4.57;;;;;;;;;;5037945;28;19920;-88
2021/01/25 09:52:50;;;;;;;19.00;4.85;;;;;;;;;;5029881;28;20039;-86
2021/01/25 09:55:18;;;;;;;18.55;4.57;;;;;;;;;;5025364;28;20035;-88
2021/01/25 09:57:46;;;;;;;17.63;4.20;;;;;;;;;;5021754;28;20047;-88
2021/01/25 10:00:14;;;;;;;16.48;4.65;;;;;;;;;;5013677;28;20102;-87
2021/01/25 10:02:43;;;;;;;19.00;4.93;;;;;;;;;;5028155;28;20037;-89
2021/01/25 10:05:10;;;;;;;15.05;4.25;;;;;;;;;;5015968;28;20588;-88
2021/01/25 10:07:37;;;;;;;16.48;3.72;;;;;;;;;;5020754;28;20044;-89
2021/01/25 10:10:08;;;;;;;21.65;4.25;;;;;;;;;;5028829;28;20057;-88
2021/01/25 10:12:34;;;;;;;13.77;3.05;;;;;;;;;;5033953;28;20130;-89
2021/01/25 10:15:02;;;;;;;13.20;2.50;;;;;;;;;;5011433;28;20268;-87
2021/01/25 10:17:30;;;;;;;13.80;2.75;;;;;;;;;;5008301;28;20044;-86
2021/01/25 10:19:57;;;;;;;11.27;2.92;;;;;;;;;;5022649;28;20135;-86
2021/01/25 10:22:25;;;;;;;13.38;3.05;;;;;;;;;;5033636;28;20025;-86
2021/01/25 10:24:52;;;;;;;16.70;4.60;;;;;;;;;;4991806;28;20041;-87
2021/01/25 10:27:18;;;;;;;;;;;;;;;;;;5009555;28;20041;-86
2021/01/25 10:29:45;;;;;;;15.70;4.78;;;;;;;;;;5005359;28;20228;-86
2021/01/25 10:32:16;;;;;;;15.75;4.35;;;;;;;;;;5012305;28;20045;-84
2021/01/25 10:34:45;;;;;;;14.98;4.15;;;;;;;;;;5021489;28;20049;-85
2021/01/25 10:37:11;;;;;;;16.90;4.10;;;;;;;;;;5016946;28;20083;-85
2021/01/25 10:39:38;;;;;;;13.45;3.40;;;;;;;;;;5026130;28;20446;-85
2021/01/25 10:42:07;;;;;;;13.30;3.58;;;;;;;;;;4985442;28;20036;-85
2021/01/25 10:44:36;;;;;;;13.52;3.45;;;;;;;;;;5005396;28;20885;-86
2021/01/25 10:47:02;;;;;;;13.88;3.70;;;;;;;;;;5009329;28;20072;-85
2021/01/25 10:49:32;;;;;;;14.10;3.42;;;;;;;;;;5031792;28;20036;-85
2021/01/25 10:51:58;;;;;;;15.20;3.63;;;;;;;;;;5023768;28;20032;-85
2021/01/25 10:54:29;;;;;;;12.38;3.70;;;;;;;;;;5017412;28;21566;-86
2021/01/25 10:56:58;;;;;;;12.10;2.72;;;;;;;;;;5029556;28;20044;-86
2021/01/25 10:59:26;;;;;;;11.48;2.50;;;;;;;;;;5015397;28;20169;-86
2021/01/25 11:01:53;;;;;;;11.48;2.80;;;;;;;;;;4973996;28;20053;-86
2021/01/25 11:04:21;;;;;;;11.02;3.10;;;;;;;;;;5012243;28;20028;-87
2021/01/25 11:06:49;;;;;;;8.43;2.55;;;;;;;;;;4981012;28;20325;-86
2021/01/25 11:09:17;;;;;;;8.85;2.05;;;;;;;;;;5022627;28;20033;-86
2021/01/25 11:11:45;;;;;;;7.95;2.00;;;;;;;;;;5027191;28;20045;-87
2021/01/25 11:14:14;;;;;;;8.80;2.15;;;;;;;;;;5022455;28;20032;-86
2021/01/25 11:16:45;;;;;;;8.73;2.15;;;;;;;;;;5015738;28;20029;-88
2021/01/25 11:19:13;;;;;;;9.32;2.55;;;;;;;;;;4994331;28;21062;-86
2021/01/25 11:21:41;;;;;;;9.38;2.13;;;;;;;;;;5009861;28;20158;-86
2021/01/25 11:24:09;;;;;;;8.57;2.10;;;;;;;;;;5000044;28;20037;-88
2021/01/25 11:26:38;;;;;;;7.68;2.30;;;;;;;;;;5011067;28;20079;-89
2021/01/25 11:29:09;;;;;;;9.75;2.38;;;;;;;;;;5014703;28;20500;-88
2021/01/25 11:31:36;;;;;;;10.23;2.42;;;;;;;;;;5045167;28;20848;-88
2021/01/25 11:34:06;;;;;;;8.80;2.20;;;;;;;;;;5025763;28;20037;-86
2021/01/25 11:36:34;;;;;;;8.02;1.77;;;;;;;;;;4968290;28;20107;-88
2021/01/25 11:39:05;;;;;;;10.55;2.17;;;;;;;;;;5019420;28;20041;-87
2021/01/25 11:41:31;;;;;;;12.15;2.53;;;;;;;;;;5024661;28;20090;-88
2021/01/25 11:44:01;;;;;;;10.85;2.45;;;;;;;;;;5024120;28;20073;-88
2021/01/25 11:46:28;;;;;;;10.20;2.63;;;;;;;;;;5027540;28;20123;-89
2021/01/25 11:48:56;;;;;;;10.38;2.88;;;;;;;;;;4971989;28;20040;-87
2021/01/25 11:51:25;;;;;;;11.63;3.08;;;;;;;;;;5012078;28;20120;-86
2021/01/25 11:53:53;;;;;;;11.43;2.60;;;;;;;;;;5036949;28;20072;-88
2021/01/25 11:56:19;;;;;;;12.40;3.17;;;;;;;;;;5008975;28;20037;-87
2021/01/25 11:58:45;;;;;;;11.80;2.70;;;;;;;;;;5001841;28;20067;-85
2021/01/25 12:01:14;;;;;;;10.65;3.10;;;;;;;;;;5009876;28;20024;-85
2021/01/25 12:03:44;;;;;;;13.18;3.72;;;;;;;;;;5024748;28;20645;-85
2021/01/25 12:06:15;;;;;;;11.15;2.67;;;;;;;;;;4976158;28;20045;-85
2021/01/25 12:08:43;;;;;;;12.65;2.50;;;;;;;;;;5019561;28;20055;-85
2021/01/25 12:11:09;;;;;;;11.70;2.50;;;;;;;;;;5008522;28;20041;-88
2021/01/25 12:13:41;;;;;;;10.40;2.00;;;;;;;;;;5025421;28;20261;-85
2021/01/25 12:16:20;;;;;;;8.07;1.80;;;;;;;;;;5000075;28;20087;-86
2021/01/25 12:18:48;;;;;;;9.57;2.58;;;;;;;;;;5015214;28;20943;-87
2021/01/25 12:21:17;;;;;;;9.10;2.20;;;;;;;;;;4988451;28;20075;-87
2021/01/25 12:23:45;;;;;;;9.93;2.67;;;;;;;;;;5004276;28;20044;-88
2021/01/25 12:26:13;;;;;;;10.35;2.42;;;;;;;;;;5016100;28;20079;-88
2021/01/25 12:28:40;;;;;;;9.23;2.40;;;;;;;;;;5024301;28;20063;-88
2021/01/25 12:31:17;;;;;;;9.20;2.40;;;;;;;;;;5006189;28;20105;-90
2021/01/25 12:33:43;;;;;;;11.43;2.65;;;;;;;;;;5003553;28;20040;-87
2021/01/25 12:36:11;;;;;;;12.00;2.47;;;;;;;;;;4937757;28;20034;-86
2021/01/25 12:38:38;;;;;;;10.48;3.28;;;;;;;;;;4998609;28;21297;-89
2021/01/25 12:41:06;;;;;;;11.98;2.28;;;;;;;;;;5004795;28;20061;-88
2021/01/25 12:43:32;;;;;;;13.18;2.83;;;;;;;;;;5017425;28;20044;-86
2021/01/25 12:45:59;;;;;;;12.00;2.40;;;;;;;;;;5005708;28;20033;-87
2021/01/25 12:48:26;;;;;;;10.75;2.80;;;;;;;;;;4984637;28;22654;-87
2021/01/25 12:50:54;;;;;;;12.20;2.80;;;;;;;;;;5000823;28;20045;-88
2021/01/25 12:53:26;;;;;;;12.30;2.58;;;;;;;;;;4991569;28;21089;-88
2021/01/25 12:55:54;;;;;;;12.02;2.50;;;;;;;;;;4999175;28;20021;-88
2021/01/25 12:58:21;;;;;;;10.57;2.58;;;;;;;;;;5022787;28;20847;-88
2021/01/25 13:00:47;;;;;;;13.63;3.00;;;;;;;;;;5007383;28;20052;-87
2021/01/25 13:03:14;;;;;;;9.52;2.53;;;;;;;;;;5024373;28;20036;-89
2021/01/25 13:05:42;;;;;;;10.88;2.78;;;;;;;;;;5030711;28;20033;-88
2021/01/25 13:08:10;;;;;;;12.48;3.65;;;;;;;;;;5012419;28;21422;-90
2021/01/25 13:10:36;;;;;;;13.27;4.75;;;;;;;;;;5020590;28;20134;-89
2021/01/25 13:13:06;;;;;;;10.80;2.30;;;;;;;;;;5000808;28;20045;-88
2021/01/25 13:15:34;;;;;;;11.25;2.78;;;;;;;;;;5014096;28;20045;-89
2021/01/25 13:18:05;;;;;;;9.75;2.60;;;;;;;;;;5023362;28;20192;-87
2021/01/25 13:20:32;;;;;;;11.95;3.25;;;;;;;;;;5002552;28;20128;-86
2021/01/25 13:23:01;;;;;;;12.10;2.63;;;;;;;;;;5006439;28;20043;-87
2021/01/25 13:25:29;;;;;;;6.70;1.60;;;;;;;;;;5010428;28;20739;-86
2021/01/25 13:27:57;;;;;;;10.75;2.90;;;;;;;;;;5000075;28;20045;-87
2021/01/25 13:30:24;;;;;;;8.82;2.03;;;;;;;;;;4970480;28;20038;-89
2021/01/25 13:32:52;;;;;;;10.15;2.70;;;;;;;;;;4959505;28;20089;-86
2021/01/25 13:35:27;;;;;;;8.25;2.40;;;;;;;;;;4966977;28;20997;-87
2021/01/25 13:38:00;;;;;;;8.98;2.13;;;;;;;;;;4974886;28;20153;-86
2021/01/25 13:40:30;;;;;;;9.68;2.40;;;;;;;;;;4984936;28;21110;-86
2021/01/25 13:42:59;;;;;;;9.57;2.85;;;;;;;;;;4986551;28;20053;-86
2021/01/25 13:45:36;;;;;;;10.70;2.38;;;;;;;;;;4975129;28;20084;-86
2021/01/25 13:48:07;;;;;;;8.00;2.33;;;;;;;;;;4964082;28;21687;-87
2021/01/25 13:50:33;;;;;;;7.80;2.40;;;;;;;;;;4980767;28;20038;-87
2021/01/25 13:53:07;;;;;;;9.00;2.78;;;;;;;;;;4992705;28;20055;-90
2021/01/25 13:55:34;;;;;;;10.90;4.35;;;;;;;;;;5001509;28;20029;-87
2021/01/25 13:58:01;;;;;;;6.32;1.60;;;;;;;;;;4985451;28;20041;-87
2021/01/25 14:00:28;;;;;;;6.07;1.50;;;;;;;;;;5018773;28;20140;-88
2021/01/25 14:02:55;;;;;;;6.28;1.92;;;;;;;;;;4998847;28;20291;-87
2021/01/25 14:05:21;;;;;;;;;;;;;;;;;;5010901;28;20171;-87
2021/01/25 14:07:49;;;;;;;5.22;1.38;;;;;;;;;;5013527;27;20023;-88
2021/01/25 14:10:17;;;;;;;6.43;1.50;;;;;;;;;;4958368;28;20240;-87
2021/01/25 14:12:44;;;;;;;5.47;1.35;;;;;;;;;;4980961;28;20055;-87
2021/01/25 14:15:10;;;;;;;;;;;;;;;;;;4960295;28;20041;-87
2021/01/25 14:17:38;;;;;;;6.93;1.73;;;;;;;;;;4944025;28;19948;-87
2021/01/25 14:20:09;;;;;;;6.82;1.80;;;;;;;;;;4942137;28;20056;-86
2021/01/25 14:22:37;;;;;;;10.25;4.30;;;;;;;;;;4987158;28;20052;-86
2021/01/25 14:25:10;;;;;;;5.80;1.60;;;;;;;;;;4933069;28;20038;-87
2021/01/25 14:27:37;;;;;;;6.65;2.08;;;;;;;;;;4961100;28;20148;-86
2021/01/25 14:30:05;;;;;;;7.40;2.30;;;;;;;;;;4970209;28;20042;-89
2021/01/25 14:32:35;;;;;;;9.32;2.60;;;;;;;;;;4956619;28;20064;-86
2021/01/25 14:35:04;;;;;;;9.02;3.28;;;;;;;;;;4965148;28;20144;-87
2021/01/25 14:37:36;;;;;;;9.25;2.72;;;;;;;;;;4977731;28;20053;-88
2021/01/25 14:40:03;;;;;;;12.30;2.67;;;;;;;;;;4976128;28;20547;-88
2021/01/25 14:42:29;;;;;;;9.60;2.50;;;;;;;;;;4959257;28;20033;-87
2021/01/25 14:44:57;;;;;;;;;;;;;;;;;;4969002;28;20505;-86
2021/01/25 14:47:24;;;;;;;12.82;4.55;;;;;;;;;;4964609;28;19917;-86
2021/01/25 14:50:02;;;;;;;7.25;2.00;;;;;;;;;;4961426;28;20045;-86
2021/01/25 14:52:33;;;;;;;6.07;1.73;;;;;;;;;;4979373;28;20045;-86